Time;durP1;ratioP1;P1;durP2;ratioP2;P2;SDS_P1;SDS_P2;PMS_P1;PMS_P2;Temp;Humidity;BMP_temperature;BMP_pressure;BME280_temperature;BME280_humidity;BME280_pressure;Samples;Min_cycle;Max_cycle;Signal;HPM_P1;HPM_P2
2022/03/12 00:01:42;;;;;;;10.38;7.53;;;;;;;-3.22;76.86;102085.63;5010371;28;20042;-73
2022/03/12 00:04:08;;;;;;;19.85;7.88;;;;;;;-3.14;76.36;102091.38;5010145;28;20048;-73
2022/03/12 00:06:34;;;;;;;11.07;6.22;;;;;;;-3.16;76.71;102086.16;5010167;28;20048;-74
2022/03/12 00:09:00;;;;;;;10.07;7.55;;;;;;;-3.02;76.16;102076.97;5007914;28;20081;-73
2022/03/12 00:11:29;;;;;;;14.93;6.85;;;;;;;-3.75;77.77;102092.31;5008028;28;20116;-74
2022/03/12 00:13:57;;;;;;;9.85;5.32;;;;;;;-3.69;79.01;102087.72;5008299;28;20048;-74
2022/03/12 00:16:26;;;;;;;11.32;7.55;;;;;;;-3.99;78.67;102071.50;5007982;28;20096;-74
2022/03/12 00:19:01;;;;;;;13.85;8.02;;;;;;;-4.05;78.32;102068.41;5009554;28;20050;-73
2022/03/12 00:21:30;;;;;;;18.90;6.47;;;;;;;-3.97;79.89;102074.22;5008639;28;20036;-74
2022/03/12 00:23:58;;;;;;;10.93;5.72;;;;;;;-4.04;79.27;102068.56;5009153;28;20038;-73
2022/03/12 00:26:24;;;;;;;14.45;7.57;;;;;;;-4.21;79.97;102080.69;5007704;28;20534;-73
2022/03/12 00:28:52;;;;;;;10.75;6.72;;;;;;;-3.92;79.07;102068.69;5007278;28;20053;-73
2022/03/12 00:31:18;;;;;;;15.13;5.75;;;;;;;-4.27;78.99;102070.81;5004063;28;20065;-73
2022/03/12 00:33:44;;;;;;;12.05;7.25;;;;;;;-4.19;79.51;102080.06;5009552;28;20018;-73
2022/03/12 00:36:10;;;;;;;11.82;5.80;;;;;;;-4.31;79.46;102073.88;5008106;28;20045;-74
2022/03/12 00:38:35;;;;;;;11.10;7.88;;;;;;;-4.30;79.55;102079.13;5008783;28;20050;-72
2022/03/12 00:41:04;;;;;;;19.42;9.13;;;;;;;-4.25;80.03;102076.97;5008432;28;20108;-73
2022/03/12 00:43:29;;;;;;;12.02;5.95;;;;;;;-4.40;79.27;102060.25;5006073;28;20133;-73
2022/03/12 00:45:55;;;;;;;14.38;7.50;;;;;;;-4.39;79.55;102064.63;5010309;28;20604;-74
2022/03/12 00:48:21;;;;;;;9.40;5.63;;;;;;;-4.27;79.89;102063.13;5012666;28;20026;-74
2022/03/12 00:50:46;;;;;;;18.75;6.85;;;;;;;-3.70;78.36;102055.13;5009327;28;20592;-74
2022/03/12 00:53:12;;;;;;;9.68;6.13;;;;;;;-4.13;78.10;102054.06;5008901;28;20092;-73
2022/03/12 00:55:37;;;;;;;15.95;7.65;;;;;;;-4.04;78.10;102050.63;5009286;28;20165;-74
2022/03/12 00:58:03;;;;;;;12.13;7.18;;;;;;;-4.05;78.59;102059.09;5007222;28;20466;-75
2022/03/12 01:00:29;;;;;;;12.20;7.57;;;;;;;-3.85;78.70;102062.44;5000160;28;20038;-74
2022/03/12 01:02:55;;;;;;;14.45;6.88;;;;;;;-3.82;77.27;102034.47;5006592;28;20037;-73
2022/03/12 01:05:46;;;;;;;11.18;5.10;;;;;;;-4.07;77.08;102054.59;5008446;28;20061;-73
2022/03/12 01:08:11;;;;;;;11.70;7.15;;;;;;;-3.90;76.97;102062.03;5008734;28;20050;-73
2022/03/12 01:10:37;;;;;;;14.32;8.20;;;;;;;-4.28;77.18;102058.78;5007782;28;20061;-74
2022/03/12 01:13:03;;;;;;;9.93;6.07;;;;;;;-4.32;78.38;102057.59;5008403;28;20072;-74
2022/03/12 01:15:28;;;;;;;9.55;5.85;;;;;;;-3.84;78.25;102061.66;4999988;28;20493;-74
2022/03/12 01:17:54;;;;;;;20.95;8.02;;;;;;;-3.75;76.95;102041.91;5006867;28;20043;-73
2022/03/12 01:20:22;;;;;;;10.55;7.05;;;;;;;-3.73;77.36;102055.75;5008682;28;20038;-73
2022/03/12 01:22:48;;;;;;;15.52;6.03;;;;;;;-3.63;76.41;102059.97;5008050;28;20522;-73
2022/03/12 01:25:13;;;;;;;11.07;5.95;;;;;;;-3.61;75.87;102053.31;5008614;28;20033;-74
2022/03/12 01:27:39;;;;;;;9.60;6.55;;;;;;;-3.63;74.83;102065.13;5006661;28;20532;-74
2022/03/12 01:30:07;;;;;;;13.68;6.25;;;;;;;-3.90;76.13;102056.91;5009266;28;20057;-73
2022/03/12 01:32:33;;;;;;;17.02;6.85;;;;;;;-3.79;75.52;102073.22;5003280;28;20084;-73
2022/03/12 01:34:58;;;;;;;10.05;5.80;;;;;;;-4.04;75.46;102042.94;5006833;28;20425;-73
2022/03/12 01:37:24;;;;;;;12.10;6.60;;;;;;;-3.80;76.10;102061.16;5008591;28;20054;-73
2022/03/12 01:39:50;;;;;;;12.55;7.05;;;;;;;-3.58;75.47;102062.94;5006032;28;20414;-73
2022/03/12 01:42:19;;;;;;;14.30;7.40;;;;;;;-3.41;74.99;102047.28;5008520;28;20447;-73
2022/03/12 01:44:45;;;;;;;9.93;6.85;;;;;;;-3.88;74.99;102057.06;5006947;28;20073;-72
2022/03/12 01:47:11;;;;;;;10.73;6.95;;;;;;;-4.00;75.22;102054.34;5009721;28;20037;-74
2022/03/12 01:49:37;;;;;;;11.63;7.15;;;;;;;-3.38;74.27;102072.31;5007704;28;20054;-74
2022/03/12 01:52:04;;;;;;;9.38;6.97;;;;;;;-3.36;72.83;102061.38;5009424;28;20125;-75
2022/03/12 01:54:30;;;;;;;9.20;6.18;;;;;;;-3.48;74.11;102065.53;5007421;28;20033;-73
2022/03/12 01:56:58;;;;;;;14.82;6.55;;;;;;;-3.18;73.27;102072.28;5011246;28;20476;-74
2022/03/12 01:59:24;;;;;;;11.98;6.43;;;;;;;-3.37;73.45;102062.19;5006171;28;20116;-73
2022/03/12 02:01:55;;;;;;;13.18;7.05;;;;;;;-3.36;73.82;102063.97;5008005;28;20148;-73
2022/03/12 02:04:22;;;;;;;13.93;7.45;;;;;;;-3.45;74.19;102069.22;5007315;28;20050;-73
2022/03/12 02:06:51;;;;;;;12.80;6.40;;;;;;;-3.35;73.77;102065.75;5015692;28;20470;-74
2022/03/12 02:09:18;;;;;;;9.55;5.25;;;;;;;-3.27;74.27;102074.09;5007003;28;20120;-73
2022/03/12 02:11:50;;;;;;;12.82;6.47;;;;;;;-3.42;73.97;102060.88;5005906;28;20046;-73
2022/03/12 02:14:26;;;;;;;10.95;5.80;;;;;;;-3.76;74.43;102065.78;5004938;28;20050;-72
2022/03/12 02:16:55;;;;;;;13.48;7.47;;;;;;;-3.32;73.24;102068.59;5005867;28;20498;-74
2022/03/12 02:19:25;;;;;;;10.93;7.22;;;;;;;-3.13;73.42;102072.66;5006844;28;20046;-73
2022/03/12 02:21:59;;;;;;;10.68;6.85;;;;;;;-3.27;73.28;102061.25;4998812;28;20042;-73
2022/03/12 02:24:27;;;;;;;11.95;5.13;;;;;;;-3.02;71.57;102076.97;5004104;28;20049;-73
2022/03/12 02:26:55;;;;;;;15.13;8.23;;;;;;;-3.12;73.28;102070.19;5006309;28;20038;-73
2022/03/12 02:29:22;;;;;;;11.07;5.50;;;;;;;-2.92;73.85;102063.25;5006667;28;20129;-73
2022/03/12 02:32:00;;;;;;;10.32;5.68;;;;;;;-2.77;72.56;102065.34;5003679;28;20478;-73
2022/03/12 02:34:35;;;;;;;16.08;9.27;;;;;;;-2.90;72.78;102070.28;5006500;28;20128;-72
2022/03/12 02:37:01;;;;;;;14.27;6.05;;;;;;;-2.84;72.82;102075.91;5006885;28;20054;-72
2022/03/12 02:39:27;;;;;;;27.17;7.28;;;;;;;-2.88;74.02;102072.97;5006220;28;20034;-72
2022/03/12 02:41:54;;;;;;;20.38;7.13;;;;;;;-2.95;73.60;102070.66;5007440;28;20046;-73
2022/03/12 02:44:23;;;;;;;12.60;7.20;;;;;;;-3.30;74.68;102069.59;4998518;28;20074;-72
2022/03/12 02:47:15;;;;;;;15.73;7.88;;;;;;;-3.09;74.59;102072.13;5007438;28;20498;-76
2022/03/12 02:49:46;;;;;;;21.52;8.10;;;;;;;-2.89;73.39;102073.75;5005854;28;20104;-73
2022/03/12 02:52:13;;;;;;;23.05;6.90;;;;;;;-2.78;73.22;102081.53;5004519;28;20121;-72
2022/03/12 02:54:40;;;;;;;13.88;7.68;;;;;;;-2.95;73.33;102060.41;5006096;28;20038;-73
2022/03/12 02:57:07;;;;;;;16.10;7.90;;;;;;;-3.00;73.15;102066.09;5006013;28;20036;-73
2022/03/12 02:59:33;;;;;;;13.88;8.32;;;;;;;-2.90;73.40;102078.00;5004072;28;20033;-73
2022/03/12 03:02:03;;;;;;;12.32;7.30;;;;;;;-2.91;73.25;102065.03;5007191;28;20489;-73
2022/03/12 03:04:35;;;;;;;21.35;8.65;;;;;;;-2.90;72.54;102066.78;5006614;28;20046;-73
2022/03/12 03:07:05;;;;;;;13.80;8.35;;;;;;;-2.64;72.26;102086.91;5006593;28;20096;-73
2022/03/12 03:09:31;;;;;;;13.90;8.85;;;;;;;-2.68;71.66;102067.75;5006853;28;20065;-73
2022/03/12 03:11:57;;;;;;;17.42;8.02;;;;;;;-2.53;70.96;102083.50;5007364;28;20029;-73
2022/03/12 03:14:26;;;;;;;16.63;6.65;;;;;;;-2.71;71.62;102092.31;5003895;28;20214;-73
2022/03/12 03:16:59;;;;;;;10.20;6.28;;;;;;;-2.62;71.00;102085.34;5006312;28;20038;-73
2022/03/12 03:19:26;;;;;;;12.75;5.88;;;;;;;-2.76;71.23;102090.28;5005699;28;20128;-74
2022/03/12 03:21:58;;;;;;;12.85;7.45;;;;;;;-2.72;71.27;102099.09;5006575;28;20104;-74
2022/03/12 03:24:25;;;;;;;13.15;7.30;;;;;;;-2.70;71.01;102100.13;5005860;28;20441;-74
2022/03/12 03:26:56;;;;;;;14.75;8.55;;;;;;;-3.00;71.80;102095.97;5006291;28;20061;-73
2022/03/12 03:29:24;;;;;;;11.45;6.90;;;;;;;-2.91;72.32;102085.56;5007741;28;20497;-73
2022/03/12 03:31:50;;;;;;;14.85;8.77;;;;;;;-2.95;72.38;102093.78;5008448;28;20041;-74
2022/03/12 03:34:17;;;;;;;14.48;7.45;;;;;;;-2.90;73.35;102084.78;5010289;28;20284;-73
2022/03/12 03:36:43;;;;;;;12.27;7.65;;;;;;;-3.22;72.88;102093.34;5010181;28;20033;-73
2022/03/12 03:39:09;;;;;;;12.88;7.32;;;;;;;-3.17;74.06;102074.06;5009861;28;20093;-74
2022/03/12 03:41:35;;;;;;;15.45;7.80;;;;;;;-2.93;73.61;102092.25;5008294;28;20049;-74
2022/03/12 03:44:01;;;;;;;20.15;9.95;;;;;;;-3.35;74.62;102101.66;5008217;28;20042;-73
2022/03/12 03:46:26;;;;;;;16.05;8.25;;;;;;;-3.04;75.03;102097.41;5007926;28;20547;-73
2022/03/12 03:48:53;;;;;;;15.20;10.00;;;;;;;-3.19;74.58;102081.63;5009922;28;20045;-73
2022/03/12 03:51:22;;;;;;;14.23;8.55;;;;;;;-3.00;74.20;102088.28;5010200;28;20029;-73
2022/03/12 03:53:48;;;;;;;23.67;9.90;;;;;;;-3.01;74.20;102094.19;5007877;28;20038;-73
2022/03/12 03:56:14;;;;;;;14.85;8.55;;;;;;;-3.23;74.21;102094.09;5009121;28;20073;-74
2022/03/12 03:58:40;;;;;;;15.25;10.98;;;;;;;-3.18;75.01;102090.25;5010162;28;20046;-74
2022/03/12 04:01:12;;;;;;;21.58;9.48;;;;;;;-3.07;74.41;102096.25;5009728;28;20511;-74
2022/03/12 04:03:42;;;;;;;13.15;7.88;;;;;;;-3.17;74.10;102088.56;5010216;28;20496;-74
2022/03/12 04:06:08;;;;;;;15.25;9.07;;;;;;;-3.09;75.20;102096.16;5010289;28;20044;-74
2022/03/12 04:08:34;;;;;;;19.33;10.13;;;;;;;-3.12;74.46;102090.75;5000905;28;20517;-74
2022/03/12 04:11:10;;;;;;;17.50;8.65;;;;;;;-3.01;74.96;102086.50;5005320;28;20180;-74
2022/03/12 04:13:36;;;;;;;15.45;9.13;;;;;;;-3.53;75.62;102087.34;5007159;28;20050;-73
2022/03/12 04:16:02;;;;;;;16.38;8.32;;;;;;;-3.15;75.34;102099.88;5008974;28;20049;-73
2022/03/12 04:18:29;;;;;;;17.90;10.65;;;;;;;-3.45;75.20;102105.13;5010298;28;20038;-73
2022/03/12 04:20:54;;;;;;;19.33;9.90;;;;;;;-3.70;75.15;102108.97;5009477;28;20034;-73
2022/03/12 04:23:25;;;;;;;16.05;9.45;;;;;;;-3.58;75.63;102104.91;5006440;28;20038;-73
2022/03/12 04:25:53;;;;;;;17.13;9.93;;;;;;;-3.40;76.06;102118.34;5007786;28;20034;-75
2022/03/12 04:28:20;;;;;;;14.18;9.90;;;;;;;-3.85;76.21;102127.44;5005393;28;20042;-74
2022/03/12 04:30:45;;;;;;;16.33;8.05;;;;;;;-3.74;76.75;102114.63;5005319;28;20030;-75
2022/03/12 04:33:12;;;;;;;16.65;10.40;;;;;;;-3.68;76.43;102116.03;5009508;28;20037;-74
2022/03/12 04:35:39;;;;;;;14.82;9.07;;;;;;;-3.50;75.53;102115.81;5005211;28;20112;-74
2022/03/12 04:38:07;;;;;;;15.60;8.50;;;;;;;-3.67;75.77;102116.94;5007654;28;20034;-75
2022/03/12 04:40:33;;;;;;;15.90;9.35;;;;;;;-3.53;75.78;102121.56;5006456;28;20180;-74
2022/03/12 04:42:58;;;;;;;16.23;10.70;;;;;;;-3.45;75.04;102128.22;5006084;28;20538;-74
2022/03/12 04:45:26;;;;;;;11.90;8.93;;;;;;;-3.67;75.11;102124.66;5006968;28;20369;-74
2022/03/12 04:47:53;;;;;;;15.85;8.63;;;;;;;-3.54;74.86;102117.19;5008306;28;20050;-75
2022/03/12 04:50:21;;;;;;;20.38;9.85;;;;;;;-3.66;75.17;102116.16;5006223;28;20120;-74
2022/03/12 04:52:49;;;;;;;12.07;8.13;;;;;;;-3.44;74.36;102135.19;5007306;28;20056;-75
2022/03/12 04:55:20;;;;;;;16.25;7.97;;;;;;;-3.42;74.05;102135.28;5008559;28;20038;-75
2022/03/12 04:57:46;;;;;;;13.98;7.70;;;;;;;-3.63;75.00;102134.38;5008646;28;20041;-74
2022/03/12 05:00:24;;;;;;;13.68;7.45;;;;;;;-3.69;74.48;102124.50;5008942;28;20038;-74
2022/03/12 05:02:53;;;;;;;14.02;8.30;;;;;;;-3.43;74.49;102130.94;5008827;28;20100;-74
2022/03/12 05:05:19;;;;;;;15.70;8.45;;;;;;;-3.64;74.11;102112.97;5008206;28;20061;-74
2022/03/12 05:07:45;;;;;;;24.95;9.32;;;;;;;-3.53;74.03;102116.44;5008779;28;20129;-74
2022/03/12 05:10:17;;;;;;;17.98;9.63;;;;;;;-3.70;74.12;102120.16;5009531;28;20030;-75
2022/03/12 05:12:48;;;;;;;13.50;8.40;;;;;;;-3.92;74.40;102132.78;5006467;28;20026;-74
2022/03/12 05:15:15;;;;;;;15.65;8.30;;;;;;;-3.64;74.83;102119.78;5007140;28;20672;-74
2022/03/12 05:17:47;;;;;;;10.40;7.03;;;;;;;-3.44;74.39;102126.59;5006816;28;20107;-73
2022/03/12 05:20:18;;;;;;;11.55;8.07;;;;;;;-3.24;73.62;102136.81;5008292;28;20054;-74
2022/03/12 05:22:43;;;;;;;16.45;8.80;;;;;;;-3.55;74.09;102143.63;5008135;28;20046;-74
2022/03/12 05:25:10;;;;;;;16.60;8.43;;;;;;;-3.12;73.59;102133.50;5006044;28;20129;-74
2022/03/12 05:27:36;;;;;;;20.40;8.88;;;;;;;-3.82;74.55;102125.16;5007070;28;20049;-74
2022/03/12 05:30:03;;;;;;;13.80;7.80;;;;;;;-3.48;74.75;102135.69;5007983;28;20497;-74
2022/03/12 05:32:28;;;;;;;13.30;8.80;;;;;;;-3.42;74.21;102135.28;5002518;28;20749;-73
2022/03/12 05:34:54;;;;;;;15.73;8.48;;;;;;;-3.38;74.43;102136.47;5007289;28;20046;-74
2022/03/12 05:37:20;;;;;;;14.55;8.45;;;;;;;-3.52;75.11;102133.63;5007962;28;20049;-74
2022/03/12 05:39:49;;;;;;;13.18;8.93;;;;;;;-3.31;74.43;102126.81;5003964;28;20126;-75
2022/03/12 05:42:14;;;;;;;18.75;11.70;;;;;;;-3.20;74.40;102126.06;5007950;28;20034;-75
2022/03/12 05:44:41;;;;;;;14.50;8.65;;;;;;;-3.50;75.15;102132.09;5008084;28;20052;-74
2022/03/12 05:47:10;;;;;;;14.63;8.63;;;;;;;-3.26;74.41;102130.66;5007319;28;20128;-75
2022/03/12 05:49:36;;;;;;;15.70;8.63;;;;;;;-3.28;74.95;102129.66;5009654;28;20088;-75
2022/03/12 05:52:03;;;;;;;14.32;8.55;;;;;;;-3.14;74.74;102128.22;5009904;28;20046;-78
2022/03/12 05:54:29;;;;;;;16.75;9.50;;;;;;;-3.22;74.25;102139.53;5009353;28;20535;-75
2022/03/12 05:56:56;;;;;;;21.50;11.13;;;;;;;-3.36;74.59;102142.63;5011356;28;20034;-74
2022/03/12 05:59:22;;;;;;;17.15;9.77;;;;;;;-3.99;75.93;102127.03;5009808;28;20456;-74
2022/03/12 06:01:50;;;;;;;15.75;9.55;;;;;;;-3.46;74.85;102138.38;5010509;28;20042;-74
2022/03/12 06:04:19;;;;;;;21.08;12.40;;;;;;;-3.24;74.72;102138.50;5009600;28;20034;-73
2022/03/12 06:07:27;;;;;;;19.55;10.57;;;;;;;-3.09;74.18;102156.84;5010546;28;20080;-74
2022/03/12 06:09:54;;;;;;;16.85;9.65;;;;;;;-3.01;73.65;102141.31;5007034;28;20042;-74
2022/03/12 06:12:20;;;;;;;12.90;8.65;;;;;;;-2.99;73.50;102152.59;5012323;28;20040;-74
2022/03/12 06:14:50;;;;;;;16.70;11.30;;;;;;;-3.38;74.37;102157.88;5009615;28;20050;-74
2022/03/12 06:17:16;;;;;;;13.70;8.50;;;;;;;-3.11;73.94;102149.03;5008137;28;20062;-74
2022/03/12 06:19:41;;;;;;;11.95;9.23;;;;;;;-3.06;74.14;102154.53;4999451;28;20045;-74
2022/03/12 06:22:08;;;;;;;13.82;8.90;;;;;;;-2.70;73.15;102142.91;5010338;28;20029;-75
2022/03/12 06:25:22;;;;;;;16.80;8.10;;;;;;;-2.63;74.09;102158.06;5008601;28;20420;-75
2022/03/12 06:27:54;;;;;;;12.50;8.57;;;;;;;-2.63;72.51;102156.38;5007218;28;20052;-76
2022/03/12 06:30:26;;;;;;;14.23;7.93;;;;;;;-2.59;71.34;102165.25;5005511;28;20057;-75
2022/03/12 06:32:55;;;;;;;16.27;8.73;;;;;;;-2.47;71.98;102168.81;5009669;28;20042;-75
2022/03/12 06:35:20;;;;;;;16.70;10.35;;;;;;;-2.62;71.70;102165.00;5007870;28;20037;-74
2022/03/12 06:37:46;;;;;;;14.48;10.30;;;;;;;-2.29;70.78;102174.53;5007130;28;20049;-74
2022/03/12 06:40:18;;;;;;;15.25;10.40;;;;;;;-1.94;69.25;102184.16;5007916;28;20486;-73
2022/03/12 06:42:45;;;;;;;17.10;10.80;;;;;;;-1.99;65.97;102175.16;5009395;28;20037;-75
2022/03/12 06:45:13;;;;;;;16.73;10.70;;;;;;;-1.93;66.32;102170.50;5004573;28;20034;-74
2022/03/12 06:47:39;;;;;;;13.95;9.80;;;;;;;-1.98;65.86;102180.44;5007912;28;20386;-72
2022/03/12 06:50:08;;;;;;;13.98;10.48;;;;;;;-2.14;66.35;102183.44;5009714;28;20049;-75
2022/03/12 06:52:34;;;;;;;15.93;10.98;;;;;;;-1.93;65.35;102179.13;5009223;28;20608;-75
2022/03/12 06:55:01;;;;;;;14.38;9.70;;;;;;;-1.45;63.89;102192.22;5007444;28;20041;-74
2022/03/12 06:57:27;;;;;;;15.00;9.68;;;;;;;-1.53;64.09;102179.66;5007434;28;20470;-75
2022/03/12 06:59:52;;;;;;;17.27;10.73;;;;;;;-1.45;63.54;102189.63;5007150;28;20046;-74
2022/03/12 07:02:18;;;;;;;15.90;9.32;;;;;;;-1.43;64.25;102177.78;5007005;28;20037;-75
2022/03/12 07:04:43;;;;;;;18.90;10.80;;;;;;;-1.81;64.38;102179.19;5008546;28;20149;-74
2022/03/12 07:07:09;;;;;;;15.73;10.23;;;;;;;-1.64;64.48;102183.09;5009700;28;20049;-75
2022/03/12 07:09:34;;;;;;;14.13;9.80;;;;;;;-1.47;64.35;102180.94;5015782;28;20041;-74
2022/03/12 07:12:00;;;;;;;13.23;10.02;;;;;;;-1.42;66.00;102177.03;5013100;28;20040;-75
2022/03/12 07:14:26;;;;;;;17.80;12.48;;;;;;;-1.39;63.91;102183.28;5007883;28;20045;-75
2022/03/12 07:16:56;;;;;;;18.38;11.98;;;;;;;-0.95;62.99;102170.31;5012248;28;20397;-75
2022/03/12 07:19:22;;;;;;;24.60;12.80;;;;;;;-1.02;61.03;102187.78;5010834;28;20053;-73
2022/03/12 07:21:49;;;;;;;21.58;12.68;;;;;;;-1.01;62.44;102181.81;5013093;28;20034;-74
2022/03/12 07:24:15;;;;;;;34.55;13.10;;;;;;;-0.92;62.52;102180.84;5012302;28;20032;-75
2022/03/12 07:26:41;;;;;;;16.85;10.45;;;;;;;-0.85;61.37;102195.06;5013192;28;20048;-75
2022/03/12 07:29:06;;;;;;;15.77;10.15;;;;;;;-0.98;60.95;102180.41;5011166;28;20041;-74
2022/03/12 07:32:00;;;;;;;24.45;16.88;;;;;;;-0.82;62.06;102199.56;5014133;28;20041;-75
2022/03/12 07:34:27;;;;;;;18.67;10.98;;;;;;;-0.46;59.63;102178.19;5011618;28;20121;-74
2022/03/12 07:37:12;;;;;;;27.85;11.30;;;;;;;-0.30;58.24;102191.41;5015465;28;20128;-75
2022/03/12 07:39:41;;;;;;;22.60;9.65;;;;;;;-0.13;57.33;102192.63;5011046;28;20037;-74
2022/03/12 07:42:07;;;;;;;15.88;10.63;;;;;;;-0.08;54.05;102182.63;5000131;28;20506;-75
2022/03/12 07:44:32;;;;;;;21.13;10.35;;;;;;;-0.36;55.65;102202.97;5010761;28;20559;-74
2022/03/12 07:47:05;;;;;;;14.95;9.57;;;;;;;-0.10;55.95;102197.09;4996559;28;20043;-76
2022/03/12 07:49:30;;;;;;;17.52;8.82;;;;;;;0.21;54.15;102207.91;5002108;28;20509;-75
2022/03/12 07:51:56;;;;;;;22.80;9.60;;;;;;;0.26;55.17;102205.66;5010276;28;20042;-76
2022/03/12 07:54:22;;;;;;;13.45;9.13;;;;;;;0.28;52.82;102205.03;5013699;28;20058;-76
2022/03/12 08:00:50;;;;;;;15.02;9.60;;;;;;;-0.25;55.15;102204.66;5014907;28;20380;-74
2022/03/12 08:03:18;;;;;;;14.18;8.35;;;;;;;0.31;52.48;102207.81;5011677;28;20053;-74
2022/03/12 08:05:44;;;;;;;13.90;8.50;;;;;;;0.36;53.26;102202.97;5006836;28;20022;-73
2022/03/12 08:08:09;;;;;;;12.13;8.15;;;;;;;0.81;52.06;102206.94;5002806;28;20032;-73
2022/03/12 08:11:28;;;;;;;29.73;7.85;;;;;;;-0.01;51.56;102206.41;5010606;28;20458;-73
2022/03/12 08:14:03;;;;;;;13.85;8.15;;;;;;;-0.51;53.28;102203.63;5011114;28;20050;-75
2022/03/12 08:16:37;;;;;;;17.25;9.38;;;;;;;-0.75;54.53;102201.81;5010846;28;20037;-73
2022/03/12 08:19:04;;;;;;;;;;;;;;;-0.18;53.18;102217.22;5008847;28;20084;-73
2022/03/12 08:21:30;;;;;;;18.90;9.15;;;;;;;0.08;51.49;102216.50;5011179;28;19925;-73
2022/03/12 08:23:55;;;;;;;16.52;10.07;;;;;;;0.28;52.31;102206.69;5006130;28;20046;-74
2022/03/12 08:26:21;;;;;;;11.15;8.10;;;;;;;0.12;51.46;102207.31;5013984;28;20033;-75
2022/03/12 08:28:47;;;;;;;22.63;9.88;;;;;;;0.28;51.19;102207.59;5011151;28;20037;-73
2022/03/12 08:31:13;;;;;;;13.88;7.47;;;;;;;0.13;48.61;102217.72;5008511;28;20037;-73
2022/03/12 08:33:45;;;;;;;13.32;6.85;;;;;;;-0.44;49.10;102220.47;5009477;28;20060;-74
2022/03/12 08:36:11;;;;;;;10.30;5.88;;;;;;;-0.61;46.32;102220.88;5005525;28;20041;-74
2022/03/12 08:38:38;;;;;;;12.40;7.30;;;;;;;-0.05;45.13;102217.31;5009491;28;20034;-75
2022/03/12 08:41:05;;;;;;;11.73;7.22;;;;;;;0.18;47.22;102220.63;5007746;28;20038;-74
2022/03/12 08:43:32;;;;;;;8.77;4.80;;;;;;;0.01;47.01;102219.44;5012620;28;20029;-73
2022/03/12 08:45:58;;;;;;;6.97;4.20;;;;;;;-0.57;46.47;102210.91;5011195;28;20423;-72
2022/03/12 08:48:24;;;;;;;11.38;5.85;;;;;;;-0.73;45.77;102231.19;5011288;28;20099;-73
2022/03/12 08:50:49;;;;;;;7.43;4.82;;;;;;;-0.84;46.70;102217.50;5015506;28;20046;-74
2022/03/12 08:53:18;;;;;;;7.38;4.40;;;;;;;-0.85;46.51;102226.88;5011783;28;20034;-74
2022/03/12 08:55:43;;;;;;;13.43;4.22;;;;;;;-0.73;45.33;102231.19;5011482;28;20466;-73
2022/03/12 08:58:09;;;;;;;12.27;5.78;;;;;;;-0.75;46.47;102217.28;5011018;28;20092;-73
2022/03/12 09:00:36;;;;;;;41.50;14.55;;;;;;;-0.59;45.68;102230.53;5009440;28;20496;-74
2022/03/12 09:03:02;;;;;;;7.63;4.82;;;;;;;-0.24;47.12;102203.84;5013292;28;20064;-74
2022/03/12 09:05:28;;;;;;;10.80;4.80;;;;;;;0.01;46.56;102226.28;5013687;28;20521;-74
2022/03/12 09:07:54;;;;;;;6.60;3.80;;;;;;;-0.68;45.18;102219.53;5013785;28;20030;-76
2022/03/12 09:10:21;;;;;;;9.48;5.65;;;;;;;-0.21;45.87;102211.84;5006167;28;20026;-75
2022/03/12 09:12:47;;;;;;;7.97;4.95;;;;;;;-0.13;44.86;102220.13;4999859;28;20030;-74
2022/03/12 09:18:34;;;;;;;9.93;5.18;;;;;;;0.35;44.26;102222.72;5015348;28;20033;-75
2022/03/12 09:21:00;;;;;;;11.27;3.75;;;;;;;0.20;44.75;102221.63;5013574;28;20014;-75
2022/03/12 09:23:50;;;;;;;9.18;4.10;;;;;;;-0.37;45.54;102221.81;5014228;28;20030;-75
2022/03/12 09:26:18;;;;;;;9.77;4.53;;;;;;;-0.04;45.05;102221.66;4994611;28;20034;-77
2022/03/12 09:28:44;;;;;;;7.50;3.83;;;;;;;-0.04;45.18;102224.25;5006814;28;20143;-76
2022/03/12 09:31:09;;;;;;;6.72;3.65;;;;;;;-0.17;45.71;102206.09;5009167;28;20042;-76
2022/03/12 09:34:09;;;;;;;5.78;3.05;;;;;;;-0.25;45.41;102215.84;5012181;28;20029;-75
2022/03/12 09:36:36;;;;;;;8.63;5.03;;;;;;;0.45;45.66;102213.03;4994575;28;20117;-75
2022/03/12 09:39:04;;;;;;;9.00;4.00;;;;;;;-0.11;45.25;102211.69;5011358;28;20458;-75
2022/03/12 09:41:30;;;;;;;7.50;3.80;;;;;;;0.17;45.97;102208.50;5035669;28;20075;-75
2022/03/12 09:43:56;;;;;;;9.38;4.57;;;;;;;-0.36;45.59;102201.28;5051563;28;20523;-75
2022/03/12 09:46:22;;;;;;;30.15;6.07;;;;;;;0.08;46.63;102206.16;5050873;28;20033;-74
2022/03/12 09:48:47;;;;;;;7.05;3.75;;;;;;;0.17;45.62;102196.50;5053140;28;20040;-75
2022/03/12 09:54:34;;;;;;;7.03;4.70;;;;;;;0.87;44.69;102190.94;5054033;28;20108;-74
2022/03/12 09:57:01;;;;;;;5.68;3.38;;;;;;;0.63;44.76;102201.38;5050545;28;20474;-75
2022/03/12 09:59:26;;;;;;;12.30;5.05;;;;;;;0.17;45.44;102188.75;5047358;28;20060;-78
2022/03/12 10:01:53;;;;;;;10.30;5.10;;;;;;;0.98;45.03;102190.91;5028529;28;20033;-76
2022/03/12 10:04:18;;;;;;;7.65;4.25;;;;;;;0.66;45.66;102183.53;5048600;28;20029;-74
2022/03/12 10:06:44;;;;;;;9.90;4.28;;;;;;;1.09;45.24;102196.78;5051008;28;20488;-74
2022/03/12 10:09:09;;;;;;;7.32;4.25;;;;;;;0.43;44.53;102191.38;5049086;28;20068;-73
2022/03/12 10:11:35;;;;;;;6.20;3.15;;;;;;;0.47;43.16;102181.38;5049348;28;20037;-75
2022/03/12 10:14:00;;;;;;;6.95;4.78;;;;;;;0.69;43.74;102172.50;5049858;28;20042;-74
2022/03/12 10:16:29;;;;;;;13.65;7.18;;;;;;;0.79;42.95;102183.56;5047726;28;20079;-74
2022/03/12 10:19:19;;;;;;;14.32;7.28;;;;;;;0.99;43.31;102184.94;5049329;28;20044;-73
2022/03/12 10:21:45;;;;;;;8.05;3.22;;;;;;;0.76;42.64;102197.97;5047186;28;20534;-75
2022/03/12 10:24:11;;;;;;;7.57;4.28;;;;;;;1.17;43.42;102180.09;5053228;28;20469;-74
2022/03/12 10:27:10;;;;;;;12.10;4.82;;;;;;;1.15;42.15;102186.84;5054139;28;20508;-74
2022/03/12 10:29:38;;;;;;;12.10;4.63;;;;;;;1.03;42.95;102183.44;5024449;28;20032;-74
2022/03/12 10:32:23;;;;;;;5.93;3.65;;;;;;;1.31;41.89;102172.34;5034370;28;20117;-74
2022/03/12 10:34:52;;;;;;;9.40;4.53;;;;;;;0.69;42.75;102193.19;5028844;28;20045;-73
2022/03/12 10:37:23;;;;;;;7.18;3.78;;;;;;;0.89;42.91;102169.59;5030127;28;20155;-74
2022/03/12 10:40:06;;;;;;;7.45;4.22;;;;;;;1.05;43.36;102168.91;5046033;28;20025;-73
2022/03/12 10:42:32;;;;;;;11.02;6.95;;;;;;;1.31;43.47;102164.59;5051604;28;20067;-74
2022/03/12 10:45:09;;;;;;;10.10;4.07;;;;;;;1.62;43.51;102144.22;5035258;28;20152;-75
2022/03/12 10:47:44;;;;;;;7.57;4.47;;;;;;;1.99;42.80;102149.09;5045875;28;20123;-74
2022/03/12 10:57:10;;;;;;;10.05;6.18;;;;;;;2.53;40.30;102151.63;5049514;28;20484;-75
2022/03/12 10:59:36;;;;;;;16.43;4.60;;;;;;;2.66;43.13;102131.63;5045287;28;20085;-74
2022/03/12 11:02:04;;;;;;;28.77;13.90;;;;;;;2.47;42.03;102135.69;5047965;28;20045;-74
2022/03/12 11:04:31;;;;;;;11.18;7.75;;;;;;;2.43;41.34;102135.44;5047908;28;20055;-74
2022/03/12 11:07:00;;;;;;;13.27;5.90;;;;;;;1.88;41.78;102119.97;5047520;28;20032;-73
2022/03/12 11:09:35;;;;;;;14.73;8.43;;;;;;;1.81;41.86;102130.75;5048653;28;20079;-73
2022/03/12 11:12:00;;;;;;;12.63;5.68;;;;;;;1.52;42.69;102129.75;5049707;28;20040;-77
2022/03/12 11:17:50;;;;;;;11.63;6.93;;;;;;;2.39;41.70;102117.91;5055089;28;20075;-86
2022/03/12 11:20:26;;;;;;;10.63;5.90;;;;;;;2.31;41.06;102117.44;5076687;28;20068;-86
2022/03/12 11:23:07;;;;;;;11.43;6.35;;;;;;;2.91;41.36;102119.31;5061983;28;20045;-86
2022/03/12 11:28:57;;;;;;;9.77;4.93;;;;;;;2.47;40.59;102096.84;5066263;28;20063;-85
2022/03/12 11:31:44;;;;;;;8.63;5.63;;;;;;;2.60;41.67;102088.13;5056424;28;20076;-80
2022/03/12 11:34:38;;;;;;;8.48;4.25;;;;;;;2.78;41.21;102097.78;5068406;28;20029;-86
2022/03/12 11:37:16;;;;;;;9.20;5.78;;;;;;;2.89;40.43;102096.72;5066549;28;20036;-86
2022/03/12 11:39:59;;;;;;;12.35;6.85;;;;;;;2.59;40.63;102098.38;5052404;28;20035;-87
2022/03/12 11:45:49;;;;;;;;;;;;;;;3.38;40.08;102090.03;5053604;28;20401;-75
2022/03/12 11:51:36;;;;;;;7.68;5.47;;;;;;;3.52;39.04;102077.81;5056409;28;20039;-75
2022/03/12 11:54:01;;;;;;;10.02;5.78;;;;;;;3.24;38.58;102074.50;5048735;28;20033;-74
2022/03/12 11:56:35;;;;;;;8.98;5.90;;;;;;;3.95;37.03;102085.34;5050707;28;20394;-77
2022/03/12 11:59:00;;;;;;;10.98;6.10;;;;;;;3.67;36.97;102077.78;5051952;28;20480;-77